Time;durP1;ratioP1;P1;durP2;ratioP2;P2;SDS_P1;SDS_P2;PMS_P1;PMS_P2;Temp;Humidity;BMP_temperature;BMP_pressure;BME280_temperature;BME280_humidity;BME280_pressure;Samples;Min_cycle;Max_cycle;Signal;HPM_P1;HPM_P2
2024/02/27 00:01:59;;;;;;;22.80;12.35;;;;;;;;;;4957416;28;20035;-83
2024/02/27 00:05:26;;;;;;;20.80;11.65;;;;;;;;;;4998768;28;20103;-82
2024/02/27 00:08:45;;;;;;;29.83;13.30;;;;;;;;;;5019130;28;20013;-83
2024/02/27 00:11:24;;;;;;;21.98;12.00;;;;;;;;;;4969259;28;20042;-82
2024/02/27 00:14:39;;;;;;;25.67;13.05;;;;;;;;;;4998646;28;20035;-83
2024/02/27 00:17:28;;;;;;;26.75;12.48;;;;;;;;;;4983514;28;20054;-82
2024/02/27 00:23:36;;;;;;;23.35;11.68;;;;;;;;;;4980338;28;20042;-83
2024/02/27 00:26:12;;;;;;;22.42;10.85;;;;;;;;;;4955452;28;20038;-83
2024/02/27 00:29:20;;;;;;;22.77;11.93;;;;;;;;;;4970889;28;20481;-83
2024/02/27 00:31:54;;;;;;;24.50;11.90;;;;;;;;;;4977581;29;20265;-83
2024/02/27 00:35:00;;;;;;;22.20;10.98;;;;;;;;;;5176573;23;20284;-83
2024/02/27 00:38:03;;;;;;;26.88;11.30;;;;;;;;;;4998400;28;20099;-82
2024/02/27 00:40:46;;;;;;;22.90;11.32;;;;;;;;;;4980071;28;20043;-83
2024/02/27 00:43:28;;;;;;;23.38;11.13;;;;;;;;;;4955979;28;20054;-82
2024/02/27 00:46:30;;;;;;;20.08;10.38;;;;;;;;;;4963323;29;20054;-82
2024/02/27 00:50:08;;;;;;;17.13;9.77;;;;;;;;;;4974826;29;20123;-84
2024/02/27 00:53:28;;;;;;;21.70;11.02;;;;;;;;;;4962457;29;20038;-82
2024/02/27 00:56:17;;;;;;;21.35;10.55;;;;;;;;;;4975204;29;20027;-83
2024/02/27 00:59:23;;;;;;;19.05;9.73;;;;;;;;;;4961454;29;20019;-83
2024/02/27 01:02:43;;;;;;;15.77;8.98;;;;;;;;;;4932616;29;20443;-83
2024/02/27 01:05:45;;;;;;;20.33;10.75;;;;;;;;;;4936715;29;20042;-83
2024/02/27 01:08:44;;;;;;;19.08;9.23;;;;;;;;;;4954263;29;20036;-82
2024/02/27 01:11:51;;;;;;;22.30;9.35;;;;;;;;;;4945394;29;20059;-83
2024/02/27 01:14:59;;;;;;;18.33;9.13;;;;;;;;;;4941343;29;20031;-83
2024/02/27 01:22:10;;;;;;;18.40;9.18;;;;;;;;;;4939710;29;20023;-81
2024/02/27 01:25:02;;;;;;;19.27;10.57;;;;;;;;;;4948442;29;20028;-81
2024/02/27 01:28:16;;;;;;;17.40;9.02;;;;;;;;;;4957186;29;20043;-83
2024/02/27 01:30:58;;;;;;;19.45;9.45;;;;;;;;;;4925825;29;20087;-82
2024/02/27 01:33:43;;;;;;;17.70;9.13;;;;;;;;;;4960010;28;20051;-82
2024/02/27 01:36:46;;;;;;;17.08;9.25;;;;;;;;;;4963013;28;20066;-81
2024/02/27 01:39:48;;;;;;;18.00;8.65;;;;;;;;;;4943240;29;20035;-82
2024/02/27 01:46:29;;;;;;;15.85;8.90;;;;;;;;;;5059036;23;20073;-83
2024/02/27 01:49:16;;;;;;;16.00;8.45;;;;;;;;;;4924863;29;20269;-83
2024/02/27 01:52:04;;;;;;;15.20;8.48;;;;;;;;;;4943251;29;20039;-84
2024/02/27 02:00:40;;;;;;;14.15;8.25;;;;;;;;;;5322481;23;20050;-82
2024/02/27 02:03:42;;;;;;;17.05;9.43;;;;;;;;;;4960293;28;20050;-82
2024/02/27 02:06:29;;;;;;;16.75;8.40;;;;;;;;;;4977747;28;20050;-83
2024/02/27 02:09:26;;;;;;;14.55;8.20;;;;;;;;;;4993515;28;20041;-82
2024/02/27 02:12:28;;;;;;;15.68;7.95;;;;;;;;;;4966996;28;20027;-83
2024/02/27 02:15:48;;;;;;;14.10;8.13;;;;;;;;;;4991893;28;20034;-83
2024/02/27 02:18:40;;;;;;;14.13;7.40;;;;;;;;;;4960965;29;20026;-82
2024/02/27 02:21:26;;;;;;;14.90;7.50;;;;;;;;;;4971509;29;20043;-83
2024/02/27 02:27:58;;;;;;;14.65;7.57;;;;;;;;;;4962012;29;20018;-83
2024/02/27 02:30:44;;;;;;;13.18;7.22;;;;;;;;;;4961896;29;20035;-83
2024/02/27 02:33:47;;;;;;;12.15;6.60;;;;;;;;;;4973577;28;20042;-83
2024/02/27 02:36:55;;;;;;;14.23;6.38;;;;;;;;;;4994469;28;20086;-82
2024/02/27 02:39:31;;;;;;;14.13;6.72;;;;;;;;;;4996224;28;20044;-83
2024/02/27 02:42:22;;;;;;;13.60;6.15;;;;;;;;;;4980108;28;20070;-82
2024/02/27 02:45:42;;;;;;;12.57;6.22;;;;;;;;;;4944991;28;20047;-83
2024/02/27 02:56:26;;;;;;;9.23;5.55;;;;;;;;;;4996574;28;20035;-82
2024/02/27 02:59:15;;;;;;;;;;;;;;;;;;4980764;28;20030;-82
2024/02/27 03:02:41;;;;;;;8.77;4.85;;;;;;;;;;4995443;28;19910;-83
2024/02/27 03:06:05;;;;;;;11.82;5.25;;;;;;;;;;4996273;28;20031;-84
2024/02/27 03:09:19;;;;;;;9.82;4.72;;;;;;;;;;4979312;28;20019;-83
2024/02/27 03:12:16;;;;;;;7.78;4.57;;;;;;;;;;4978327;28;20031;-83
2024/02/27 03:14:52;;;;;;;10.50;5.22;;;;;;;;;;4994230;28;20015;-82
2024/02/27 03:18:16;;;;;;;9.52;4.70;;;;;;;;;;4976182;28;20049;-82
2024/02/27 03:21:14;;;;;;;11.77;4.65;;;;;;;;;;4976709;28;20026;-82
2024/02/27 03:23:48;;;;;;;8.13;4.22;;;;;;;;;;4979383;28;20026;-83
2024/02/27 03:26:35;;;;;;;10.20;4.75;;;;;;;;;;4994900;28;20033;-83
2024/02/27 03:29:28;;;;;;;10.68;4.75;;;;;;;;;;4976356;28;20054;-83
2024/02/27 03:32:05;;;;;;;11.30;4.90;;;;;;;;;;4944368;28;20022;-82
2024/02/27 03:34:46;;;;;;;6.88;3.92;;;;;;;;;;4971328;28;20070;-83
2024/02/27 03:37:43;;;;;;;8.48;4.22;;;;;;;;;;4980080;28;20043;-82
2024/02/27 03:40:29;;;;;;;8.60;4.57;;;;;;;;;;4977542;28;20035;-82
2024/02/27 03:43:25;;;;;;;7.55;3.95;;;;;;;;;;4980199;28;20110;-82
2024/02/27 03:46:14;;;;;;;8.15;4.18;;;;;;;;;;4996548;28;20026;-82
2024/02/27 03:48:53;;;;;;;8.05;4.15;;;;;;;;;;4981433;28;20058;-83
2024/02/27 03:51:45;;;;;;;10.50;4.00;;;;;;;;;;4982613;28;20023;-82
2024/02/27 03:54:46;;;;;;;9.10;3.95;;;;;;;;;;5207784;23;20042;-82
2024/02/27 03:57:30;;;;;;;10.73;4.13;;;;;;;;;;4979884;28;20051;-82
2024/02/27 04:07:22;;;;;;;7.22;4.18;;;;;;;;;;4984982;28;20039;-82
2024/02/27 04:10:41;;;;;;;6.80;3.33;;;;;;;;;;4994206;28;20030;-83
2024/02/27 04:13:50;;;;;;;7.05;3.78;;;;;;;;;;4989264;28;20039;-82
2024/02/27 04:17:00;;;;;;;10.40;3.95;;;;;;;;;;4992117;28;20035;-81
2024/02/27 04:19:57;;;;;;;7.00;3.88;;;;;;;;;;4979303;28;20152;-82
2024/02/27 04:22:54;;;;;;;8.00;3.88;;;;;;;;;;4961237;28;20086;-82
2024/02/27 04:26:12;;;;;;;8.05;4.13;;;;;;;;;;4982009;28;20042;-82
2024/02/27 04:28:58;;;;;;;11.32;3.72;;;;;;;;;;4975192;28;20059;-82
2024/02/27 04:32:06;;;;;;;9.15;3.63;;;;;;;;;;4965230;29;20035;-82
2024/02/27 04:34:38;;;;;;;7.15;3.97;;;;;;;;;;4938273;29;20103;-83
2024/02/27 04:37:29;;;;;;;8.15;3.60;;;;;;;;;;4931354;29;20062;-82
2024/02/27 04:40:43;;;;;;;7.00;3.63;;;;;;;;;;4937618;29;20051;-82
2024/02/27 04:47:19;;;;;;;7.93;3.85;;;;;;;;;;4973312;29;20514;-82
2024/02/27 04:50:22;;;;;;;9.00;3.58;;;;;;;;;;4975110;29;20066;-82
2024/02/27 04:53:00;;;;;;;5.88;3.33;;;;;;;;;;4941503;29;20055;-82
2024/02/27 04:55:53;;;;;;;;;;;;;;;;;;4968233;28;20039;-82
2024/02/27 04:59:06;;;;;;;8.70;3.28;;;;;;;;;;4961148;29;20442;-83
2024/02/27 05:01:57;;;;;;;;;;;;;;;;;;4996734;28;20139;-83
2024/02/27 05:04:55;;;;;;;;;;;;;;;;;;4995617;28;19921;-83
2024/02/27 05:07:42;;;;;;;4.88;2.78;;;;;;;;;;4997632;28;19910;-83
2024/02/27 05:10:24;;;;;;;5.60;3.47;;;;;;;;;;4961785;29;20023;-82
2024/02/27 05:13:02;;;;;;;8.15;3.88;;;;;;;;;;4961928;29;20035;-82
2024/02/27 05:15:36;;;;;;;7.10;3.70;;;;;;;;;;4961657;29;20012;-82
2024/02/27 05:18:21;;;;;;;8.07;3.50;;;;;;;;;;4957757;29;20031;-82
2024/02/27 05:21:46;;;;;;;7.38;3.33;;;;;;;;;;4978177;29;20265;-83
2024/02/27 05:25:03;;;;;;;7.85;3.67;;;;;;;;;;4975477;28;20043;-82
2024/02/27 05:28:11;;;;;;;9.43;3.63;;;;;;;;;;4962700;29;20035;-82
2024/02/27 05:31:17;;;;;;;7.45;3.50;;;;;;;;;;4977722;29;20035;-82
2024/02/27 05:34:20;;;;;;;7.25;3.38;;;;;;;;;;5072547;23;21604;-83
2024/02/27 05:37:45;;;;;;;8.50;3.17;;;;;;;;;;4975444;28;20050;-82
2024/02/27 05:41:03;;;;;;;8.43;3.60;;;;;;;;;;4996945;28;20027;-83
2024/02/27 05:44:03;;;;;;;7.20;3.55;;;;;;;;;;4993044;28;20039;-83
2024/02/27 05:47:11;;;;;;;7.22;3.83;;;;;;;;;;4978413;28;20047;-82
2024/02/27 05:49:44;;;;;;;7.78;3.72;;;;;;;;;;4961671;29;20039;-84
2024/02/27 05:53:06;;;;;;;8.00;3.03;;;;;;;;;;4954875;29;20050;-84
2024/02/27 05:57:04;;;;;;;6.20;3.30;;;;;;;;;;4978598;28;20046;-83
2024/02/27 06:00:29;;;;;;;10.48;3.58;;;;;;;;;;4975422;28;20043;-82
2024/02/27 06:04:23;;;;;;;6.05;3.53;;;;;;;;;;4920598;29;20059;-83
2024/02/27 06:22:23;;;;;;;12.32;3.92;;;;;;;;;;4978037;29;20092;-83
2024/02/27 06:28:26;;;;;;;6.95;3.55;;;;;;;;;;5244987;23;20322;-82
2024/02/27 06:35:26;;;;;;;6.30;3.17;;;;;;;;;;4968598;28;20051;-83
2024/02/27 06:38:43;;;;;;;7.35;3.72;;;;;;;;;;4986365;28;20128;-83
2024/02/27 06:41:48;;;;;;;11.68;4.72;;;;;;;;;;4978309;28;20034;-83
2024/02/27 06:45:06;;;;;;;8.82;3.90;;;;;;;;;;4992603;28;20023;-83
2024/02/27 06:48:35;;;;;;;7.55;3.97;;;;;;;;;;4985898;28;20023;-83
2024/02/27 06:51:44;;;;;;;7.57;3.53;;;;;;;;;;4975695;28;20035;-82
2024/02/27 06:55:03;;;;;;;6.78;3.60;;;;;;;;;;5499568;23;21069;-83
2024/02/27 06:58:57;;;;;;;10.10;4.15;;;;;;;;;;4992167;28;20054;-82
2024/02/27 07:02:07;;;;;;;6.55;3.17;;;;;;;;;;4995733;28;20031;-82
2024/02/27 07:05:21;;;;;;;7.55;4.38;;;;;;;;;;4975330;28;20047;-82
2024/02/27 07:08:21;;;;;;;6.93;4.07;;;;;;;;;;4994578;28;20046;-83
2024/02/27 07:11:41;;;;;;;7.57;4.25;;;;;;;;;;4960818;28;20043;-83
2024/02/27 07:14:49;;;;;;;7.38;4.35;;;;;;;;;;4985398;28;20027;-83
2024/02/27 07:22:22;;;;;;;8.43;4.32;;;;;;;;;;4905822;29;20020;-83
2024/02/27 07:27:57;;;;;;;7.50;4.05;;;;;;;;;;6002130;23;20328;-82
2024/02/27 07:30:53;;;;;;;8.68;4.75;;;;;;;;;;4999995;28;20039;-82
2024/02/27 07:33:35;;;;;;;11.50;5.43;;;;;;;;;;4993929;28;20035;-83
2024/02/27 07:39:58;;;;;;;15.32;4.80;;;;;;;;;;4996741;28;20039;-82
2024/02/27 07:43:02;;;;;;;9.27;5.03;;;;;;;;;;4987142;28;20035;-83
2024/02/27 07:46:09;;;;;;;15.75;7.10;;;;;;;;;;4979739;28;20103;-83
2024/02/27 07:54:07;;;;;;;10.10;4.55;;;;;;;;;;4923230;29;20122;-85
2024/02/27 07:58:06;;;;;;;9.88;4.97;;;;;;;;;;4886907;29;20025;-83
2024/02/27 08:01:48;;;;;;;11.98;5.28;;;;;;;;;;4896695;29;20089;-80
2024/02/27 08:04:43;;;;;;;11.00;5.43;;;;;;;;;;4877740;29;20049;-82
2024/02/27 08:07:36;;;;;;;13.38;5.07;;;;;;;;;;4870905;29;20037;-82
2024/02/27 08:13:50;;;;;;;11.07;6.07;;;;;;;;;;4888589;29;20045;-82
2024/02/27 08:16:30;;;;;;;11.52;6.72;;;;;;;;;;4884840;29;20033;-82
2024/02/27 08:22:51;;;;;;;10.77;6.10;;;;;;;;;;4903291;29;20047;-82
2024/02/27 08:26:01;;;;;;;21.38;7.18;;;;;;;;;;4900035;29;20056;-83
2024/02/27 08:28:47;;;;;;;11.25;6.28;;;;;;;;;;4922179;29;20046;-82
2024/02/27 08:31:28;;;;;;;13.23;6.82;;;;;;;;;;4912631;29;20039;-83
2024/02/27 08:37:58;;;;;;;9.40;5.65;;;;;;;;;;5017327;28;20086;-83
2024/02/27 08:40:48;;;;;;;14.43;6.78;;;;;;;;;;5004447;28;20097;-83
2024/02/27 08:47:52;;;;;;;12.77;6.90;;;;;;;;;;4998912;28;20449;-83
2024/02/27 08:50:58;;;;;;;16.00;7.57;;;;;;;;;;4991297;28;20066;-83
2024/02/27 08:54:35;;;;;;;11.88;7.53;;;;;;;;;;4999680;28;20052;-83
2024/02/27 08:57:42;;;;;;;15.63;7.78;;;;;;;;;;4998626;28;20042;-84
2024/02/27 09:01:15;;;;;;;18.13;7.95;;;;;;;;;;4984803;28;20061;-83
2024/02/27 09:06:45;;;;;;;14.13;8.48;;;;;;;;;;5033702;23;20055;-81
2024/02/27 09:09:31;;;;;;;19.63;9.20;;;;;;;;;;4962535;28;20027;-82
2024/02/27 09:12:55;;;;;;;21.77;8.88;;;;;;;;;;4998320;28;20042;-83
2024/02/27 09:16:21;;;;;;;12.13;8.45;;;;;;;;;;4955026;29;20071;-82
2024/02/27 09:20:02;;;;;;;15.60;9.20;;;;;;;;;;4958720;29;20438;-83
2024/02/27 09:23:34;;;;;;;13.70;8.85;;;;;;;;;;4938009;29;20058;-82
2024/02/27 09:26:39;;;;;;;13.82;8.27;;;;;;;;;;4965170;29;20027;-82
2024/02/27 09:30:16;;;;;;;16.02;8.57;;;;;;;;;;4961378;29;20051;-83
2024/02/27 09:37:43;;;;;;;15.43;9.05;;;;;;;;;;4937885;29;20067;-83
2024/02/27 09:40:27;;;;;;;15.40;9.82;;;;;;;;;;4933606;29;20068;-83
2024/02/27 09:43:50;;;;;;;16.88;9.45;;;;;;;;;;4932216;29;20032;-82
2024/02/27 09:51:30;;;;;;;15.43;10.05;;;;;;;;;;4896745;29;20069;-82
2024/02/27 09:54:38;;;;;;;;;;;;;;;;;;;;;
2024/02/27 09:57:35;;;;;;;17.67;10.95;;;;;;;;;;4886447;29;20037;-82
2024/02/27 10:00:34;;;;;;;17.20;10.07;;;;;;;;;;4884629;29;20105;-82
2024/02/27 10:03:45;;;;;;;17.40;9.88;;;;;;;;;;4891549;29;20053;-82
2024/02/27 10:07:02;;;;;;;15.02;9.82;;;;;;;;;;4884081;29;20350;-82
2024/02/27 10:09:34;;;;;;;17.80;10.48;;;;;;;;;;4864782;29;20048;-82
2024/02/27 10:12:13;;;;;;;16.80;9.80;;;;;;;;;;4866752;29;20029;-82
2024/02/27 10:14:56;;;;;;;18.42;10.50;;;;;;;;;;4896927;29;20041;-82
2024/02/27 10:17:56;;;;;;;19.77;10.50;;;;;;;;;;4890926;29;20037;-83
2024/02/27 10:20:44;;;;;;;18.52;11.10;;;;;;;;;;4898466;29;20104;-83
2024/02/27 10:26:38;;;;;;;20.33;11.23;;;;;;;;;;4909600;29;20051;-82
2024/02/27 10:29:14;;;;;;;20.05;11.55;;;;;;;;;;4924401;29;20034;-83
2024/02/27 10:32:20;;;;;;;19.98;11.18;;;;;;;;;;4944817;29;20100;-82
2024/02/27 10:36:06;;;;;;;19.15;12.05;;;;;;;;;;4859338;29;20044;-83
2024/02/27 10:43:24;;;;;;;23.48;11.50;;;;;;;;;;4789313;30;20059;-83
2024/02/27 10:47:07;;;;;;;19.45;12.07;;;;;;;;;;4758042;30;20071;-83
2024/02/27 10:50:13;;;;;;;20.23;11.98;;;;;;;;;;4787880;30;20044;-83
2024/02/27 10:53:59;;;;;;;20.25;12.43;;;;;;;;;;4754505;30;20067;-83
2024/02/27 10:57:48;;;;;;;;;;;;;;;;;;;;;
2024/02/27 11:01:14;;;;;;;25.27;12.15;;;;;;;;;;4785534;30;20134;-82
2024/02/27 11:04:12;;;;;;;23.38;12.30;;;;;;;;;;4787244;30;20066;-83
2024/02/27 11:07:08;;;;;;;20.85;12.75;;;;;;;;;;4757944;30;20090;-83
2024/02/27 11:10:48;;;;;;;21.25;13.25;;;;;;;;;;4818842;29;20050;-82
2024/02/27 11:14:25;;;;;;;23.15;13.23;;;;;;;;;;4823706;29;20041;-82
2024/02/27 11:21:22;;;;;;;23.02;12.50;;;;;;;;;;4946992;29;20083;-84
2024/02/27 11:25:42;;;;;;;22.25;12.75;;;;;;;;;;4909548;29;20030;-83
2024/02/27 11:29:15;;;;;;;22.00;13.27;;;;;;;;;;4948906;29;20042;-83
2024/02/27 11:38:48;;;;;;;22.73;13.98;;;;;;;;;;4956841;29;20059;-83
2024/02/27 11:42:38;;;;;;;26.45;13.60;;;;;;;;;;4952472;29;20070;-83
2024/02/27 11:46:27;;;;;;;23.77;13.63;;;;;;;;;;5786903;23;20097;-82
2024/02/27 11:49:49;;;;;;;25.73;13.52;;;;;;;;;;4952683;28;20044;-83
2024/02/27 11:56:23;;;;;;;20.55;12.68;;;;;;;;;;5069053;23;20059;-83
2024/02/27 11:59:16;;;;;;;26.83;14.05;;;;;;;;;;4997687;28;20055;-84
2024/02/27 12:02:17;;;;;;;26.00;14.10;;;;;;;;;;4980020;28;20049;-83
2024/02/27 12:04:57;;;;;;;25.15;14.25;;;;;;;;;;4952331;28;20070;-83
2024/02/27 12:07:42;;;;;;;26.83;14.15;;;;;;;;;;4992349;28;20042;-82
2024/02/27 12:10:28;;;;;;;26.35;14.88;;;;;;;;;;4962434;28;20034;-83
2024/02/27 12:13:15;;;;;;;26.33;14.55;;;;;;;;;;4969722;29;20039;-82
2024/02/27 12:16:04;;;;;;;25.83;14.18;;;;;;;;;;4942787;29;20066;-81
2024/02/27 12:18:41;;;;;;;23.67;13.93;;;;;;;;;;4969551;29;20037;-82
2024/02/27 12:21:40;;;;;;;24.67;14.63;;;;;;;;;;4961542;28;20035;-83
2024/02/27 12:24:28;;;;;;;28.08;14.82;;;;;;;;;;4964576;29;20051;-82
2024/02/27 12:27:23;;;;;;;28.85;15.48;;;;;;;;;;4960778;29;20034;-82
2024/02/27 12:30:22;;;;;;;25.13;14.43;;;;;;;;;;4961083;29;20031;-83
2024/02/27 12:33:22;;;;;;;27.63;15.93;;;;;;;;;;4973869;29;20054;-83
2024/02/27 12:36:08;;;;;;;28.38;15.48;;;;;;;;;;4949447;29;20058;-83
2024/02/27 12:38:37;;;;;;;27.75;15.45;;;;;;;;;;4954290;29;20129;-81
2024/02/27 12:41:24;;;;;;;30.08;16.45;;;;;;;;;;4959095;29;20027;-81
2024/02/27 12:47:00;;;;;;;28.55;15.43;;;;;;;;;;4972267;28;20039;-83
2024/02/27 12:49:37;;;;;;;31.10;16.17;;;;;;;;;;4990002;28;20023;-83
2024/02/27 12:52:18;;;;;;;26.90;15.23;;;;;;;;;;4961655;28;20105;-82
2024/02/27 12:54:58;;;;;;;;;;;;;;;;;;4947918;28;20054;-83
2024/02/27 12:57:33;;;;;;;28.00;14.88;;;;;;;;;;4962025;28;19966;-82
2024/02/27 13:00:20;;;;;;;25.50;14.02;;;;;;;;;;4966689;28;20054;-83
2024/02/27 13:02:56;;;;;;;27.35;14.73;;;;;;;;;;4979176;28;20089;-83
2024/02/27 13:05:41;;;;;;;24.58;14.32;;;;;;;;;;4983123;28;20022;-82
2024/02/27 13:08:19;;;;;;;23.25;14.40;;;;;;;;;;4971024;28;20035;-83
2024/02/27 13:10:50;;;;;;;27.10;13.93;;;;;;;;;;4939291;29;20031;-81
2024/02/27 13:13:26;;;;;;;27.25;15.30;;;;;;;;;;4962409;28;20026;-82
2024/02/27 13:15:56;;;;;;;30.10;16.10;;;;;;;;;;4934817;29;20107;-82
2024/02/27 13:18:52;;;;;;;25.25;14.50;;;;;;;;;;4948543;28;20062;-82
2024/02/27 13:21:21;;;;;;;32.03;16.23;;;;;;;;;;4939423;28;20046;-82
2024/02/27 13:27:22;;;;;;;29.10;15.52;;;;;;;;;;4940867;28;20035;-83
2024/02/27 13:30:27;;;;;;;29.98;16.23;;;;;;;;;;4974617;28;20054;-83
2024/02/27 13:33:47;;;;;;;32.55;16.25;;;;;;;;;;4955045;28;20398;-83
2024/02/27 13:37:29;;;;;;;28.77;15.52;;;;;;;;;;4957943;28;20050;-82
2024/02/27 13:40:53;;;;;;;28.92;16.52;;;;;;;;;;4965738;29;20031;-82
2024/02/27 13:43:40;;;;;;;29.70;16.33;;;;;;;;;;4972373;28;20106;-83
2024/02/27 13:46:23;;;;;;;33.00;16.45;;;;;;;;;;4944321;29;20064;-83
2024/02/27 13:49:10;;;;;;;29.88;16.80;;;;;;;;;;4960921;29;20047;-83
2024/02/27 13:51:47;;;;;;;31.88;17.10;;;;;;;;;;4946832;29;20039;-82
2024/02/27 13:54:29;;;;;;;32.47;16.92;;;;;;;;;;4940198;28;20307;-83
2024/02/27 13:57:50;;;;;;;33.22;17.13;;;;;;;;;;4980686;28;20038;-82
2024/02/27 14:01:02;;;;;;;32.08;17.27;;;;;;;;;;4977259;28;20083;-84
2024/02/27 14:04:45;;;;;;;34.22;16.90;;;;;;;;;;4971883;28;20043;-83
2024/02/27 14:12:17;;;;;;;37.17;17.13;;;;;;;;;;4965075;28;20042;-83
2024/02/27 14:15:29;;;;;;;36.33;17.48;;;;;;;;;;4950366;29;20032;-83
2024/02/27 14:18:15;;;;;;;31.52;17.02;;;;;;;;;;4964940;28;20388;-83
2024/02/27 14:21:12;;;;;;;36.65;16.95;;;;;;;;;;4960230;28;20066;-84
2024/02/27 14:28:47;;;;;;;29.23;15.05;;;;;;;;;;4990998;28;20115;-83
2024/02/27 14:32:28;;;;;;;34.45;16.75;;;;;;;;;;4986300;28;20566;-83
2024/02/27 14:35:30;;;;;;;31.58;16.73;;;;;;;;;;5125891;23;20051;-83
2024/02/27 14:38:25;;;;;;;38.47;17.77;;;;;;;;;;4969691;28;20045;-83
2024/02/27 14:41:07;;;;;;;39.40;17.63;;;;;;;;;;4975136;28;20046;-83
2024/02/27 14:44:15;;;;;;;35.47;18.20;;;;;;;;;;4975411;28;20110;-83
2024/02/27 14:47:15;;;;;;;36.80;19.38;;;;;;;;;;4988207;28;20055;-83
2024/02/27 14:50:32;;;;;;;43.22;20.30;;;;;;;;;;4993858;28;20035;-82
2024/02/27 14:53:17;;;;;;;44.75;20.42;;;;;;;;;;4960222;28;20051;-82
2024/02/27 14:56:33;;;;;;;35.55;17.85;;;;;;;;;;4975257;28;20037;-84
2024/02/27 14:59:54;;;;;;;37.10;18.25;;;;;;;;;;4993340;28;20038;-81
2024/02/27 15:02:36;;;;;;;39.75;17.75;;;;;;;;;;4991454;28;20065;-82
2024/02/27 15:05:36;;;;;;;34.58;17.75;;;;;;;;;;4976689;28;20039;-82
2024/02/27 15:08:08;;;;;;;35.53;16.83;;;;;;;;;;4959635;28;20031;-82
2024/02/27 15:10:42;;;;;;;33.42;17.45;;;;;;;;;;4975673;28;20023;-83
2024/02/27 15:13:11;;;;;;;34.80;17.60;;;;;;;;;;4976023;28;20041;-83
2024/02/27 15:15:42;;;;;;;39.15;17.90;;;;;;;;;;4988336;28;20089;-82
2024/02/27 15:18:50;;;;;;;36.70;18.05;;;;;;;;;;4989187;28;20070;-83
2024/02/27 15:21:54;;;;;;;37.33;17.55;;;;;;;;;;4963773;28;20050;-84
2024/02/27 15:25:22;;;;;;;39.80;18.27;;;;;;;;;;4950791;28;20046;-83
2024/02/27 15:28:16;;;;;;;40.85;17.98;;;;;;;;;;4991764;28;20047;-82
2024/02/27 15:31:15;;;;;;;38.50;18.85;;;;;;;;;;4991076;28;20046;-83
2024/02/27 15:34:30;;;;;;;41.22;18.88;;;;;;;;;;4992889;28;20115;-83
2024/02/27 15:37:51;;;;;;;37.08;16.92;;;;;;;;;;4994925;28;20027;-83
2024/02/27 15:40:40;;;;;;;39.17;19.48;;;;;;;;;;4959551;28;20035;-83
2024/02/27 15:43:18;;;;;;;36.75;17.40;;;;;;;;;;4975719;28;20073;-82
2024/02/27 15:45:57;;;;;;;39.33;18.10;;;;;;;;;;4992466;28;20035;-83
2024/02/27 15:48:39;;;;;;;40.50;18.95;;;;;;;;;;4987123;28;20057;-83
2024/02/27 15:51:14;;;;;;;38.28;17.85;;;;;;;;;;4960981;28;20039;-82
2024/02/27 15:54:15;;;;;;;36.00;18.42;;;;;;;;;;5005626;28;20049;-82
2024/02/27 15:57:27;;;;;;;40.45;17.60;;;;;;;;;;4988786;28;20039;-82
2024/02/27 16:00:10;;;;;;;36.90;18.05;;;;;;;;;;4976188;28;20050;-83
2024/02/27 16:03:38;;;;;;;40.90;17.35;;;;;;;;;;4990472;28;20074;-82
2024/02/27 16:06:47;;;;;;;38.17;19.30;;;;;;;;;;4979807;28;20066;-83
2024/02/27 16:13:08;;;;;;;;;;;;;;;;;;;;;
2024/02/27 16:17:06;;;;;;;32.97;16.45;;;;;;;;;;5008922;28;20044;-83
2024/02/27 16:23:25;;;;;;;36.45;15.73;;;;;;;;;;4917398;29;20524;-82
2024/02/27 16:26:33;;;;;;;40.90;16.83;;;;;;;;;;4916512;29;20032;-83
2024/02/27 16:32:58;;;;;;;37.10;16.90;;;;;;;;;;4873657;29;20065;-82
2024/02/27 16:36:28;;;;;;;36.05;17.25;;;;;;;;;;4877177;29;20105;-83
2024/02/27 16:39:24;;;;;;;38.65;17.73;;;;;;;;;;4873909;29;20037;-83
2024/02/27 16:42:17;;;;;;;39.88;18.50;;;;;;;;;;4859174;29;20044;-83
2024/02/27 16:44:56;;;;;;;37.70;17.25;;;;;;;;;;4887071;29;20088;-83
2024/02/27 16:47:41;;;;;;;38.28;17.70;;;;;;;;;;4881281;29;20041;-84
2024/02/27 16:50:17;;;;;;;39.67;18.55;;;;;;;;;;4878315;29;20040;-83
2024/02/27 16:53:07;;;;;;;38.10;17.77;;;;;;;;;;4896449;29;20131;-83
2024/02/27 16:55:58;;;;;;;34.17;16.67;;;;;;;;;;4895549;29;20141;-82
2024/02/27 16:58:33;;;;;;;39.95;17.48;;;;;;;;;;4913721;29;20031;-82
2024/02/27 17:01:09;;;;;;;37.75;17.08;;;;;;;;;;4949293;29;20044;-83
2024/02/27 17:04:06;;;;;;;40.38;17.23;;;;;;;;;;4938753;29;20040;-83
2024/02/27 17:06:42;;;;;;;36.85;17.13;;;;;;;;;;4954675;29;20553;-83
2024/02/27 17:09:45;;;;;;;38.00;16.63;;;;;;;;;;4914379;28;20038;-83
2024/02/27 17:12:52;;;;;;;43.38;17.75;;;;;;;;;;5003445;28;20031;-82
2024/02/27 17:15:33;;;;;;;43.17;18.58;;;;;;;;;;4973926;28;20077;-83
2024/02/27 17:21:44;;;;;;;42.25;17.73;;;;;;;;;;4983682;28;20055;-82
2024/02/27 17:24:14;;;;;;;39.03;18.02;;;;;;;;;;4956025;28;20043;-83
2024/02/27 17:26:42;;;;;;;46.70;18.25;;;;;;;;;;4934148;28;20045;-81
2024/02/27 17:29:10;;;;;;;37.95;17.95;;;;;;;;;;4962648;28;20027;-81
2024/02/27 17:31:40;;;;;;;;;;;;;;;;;;4952060;28;20046;-83
2024/02/27 17:34:23;;;;;;;34.97;16.17;;;;;;;;;;4969380;28;19910;-81
2024/02/27 17:37:20;;;;;;;39.75;16.55;;;;;;;;;;4987429;28;20039;-82
2024/02/27 17:39:52;;;;;;;41.10;18.83;;;;;;;;;;4973391;28;20435;-82
2024/02/27 17:42:37;;;;;;;43.35;17.92;;;;;;;;;;4973312;28;20103;-82
2024/02/27 17:45:18;;;;;;;36.53;17.00;;;;;;;;;;4993399;28;21413;-82
2024/02/27 17:47:58;;;;;;;43.53;18.98;;;;;;;;;;4944327;28;20065;-82
2024/02/27 17:50:29;;;;;;;40.17;17.58;;;;;;;;;;4957279;28;20098;-83
2024/02/27 17:53:13;;;;;;;43.40;17.98;;;;;;;;;;4973457;28;20023;-82
2024/02/27 17:56:01;;;;;;;42.28;18.88;;;;;;;;;;4955563;28;20030;-82
2024/02/27 17:58:44;;;;;;;41.97;18.27;;;;;;;;;;4975080;28;20031;-82
2024/02/27 18:01:14;;;;;;;37.88;16.38;;;;;;;;;;4942466;28;20039;-82
2024/02/27 18:03:43;;;;;;;44.05;17.48;;;;;;;;;;4973258;28;20031;-81
2024/02/27 18:06:14;;;;;;;36.45;17.00;;;;;;;;;;4941894;28;20041;-81
2024/02/27 18:08:42;;;;;;;38.25;17.85;;;;;;;;;;4942772;28;20039;-81
2024/02/27 18:11:15;;;;;;;38.85;17.60;;;;;;;;;;4972779;28;20038;-83
2024/02/27 18:13:47;;;;;;;39.22;17.95;;;;;;;;;;4941781;28;20034;-81
2024/02/27 18:16:20;;;;;;;39.45;18.38;;;;;;;;;;4984114;28;20126;-81
2024/02/27 18:19:18;;;;;;;38.05;17.15;;;;;;;;;;4971806;28;20063;-81
2024/02/27 18:21:50;;;;;;;34.00;17.60;;;;;;;;;;4955855;28;20105;-81
2024/02/27 18:24:30;;;;;;;35.95;17.27;;;;;;;;;;4957084;28;20031;-83
2024/02/27 18:26:57;;;;;;;39.95;18.85;;;;;;;;;;4940429;28;20064;-83
2024/02/27 18:29:31;;;;;;;39.83;18.92;;;;;;;;;;4971503;28;20034;-81
2024/02/27 18:32:03;;;;;;;39.05;17.42;;;;;;;;;;4957843;28;20062;-81
2024/02/27 18:34:47;;;;;;;45.20;17.95;;;;;;;;;;4961087;28;20045;-82
2024/02/27 18:37:18;;;;;;;37.57;17.53;;;;;;;;;;4974974;28;20084;-80
2024/02/27 18:39:46;;;;;;;36.63;16.60;;;;;;;;;;4972484;28;20292;-83
2024/02/27 18:42:15;;;;;;;34.70;17.77;;;;;;;;;;4978722;28;20050;-81
2024/02/27 18:44:49;;;;;;;38.75;18.35;;;;;;;;;;4957456;28;20173;-82
2024/02/27 18:47:19;;;;;;;39.72;16.55;;;;;;;;;;4971167;28;20081;-81
2024/02/27 18:49:51;;;;;;;42.53;18.77;;;;;;;;;;4956554;28;20050;-81
2024/02/27 18:52:17;;;;;;;;;;;;;;;;;;4959659;28;20057;-82
2024/02/27 18:54:48;;;;;;;39.58;18.02;;;;;;;;;;4959534;28;19913;-81
2024/02/27 18:57:17;;;;;;;35.33;17.63;;;;;;;;;;4974245;28;20042;-82
2024/02/27 18:59:46;;;;;;;39.55;18.10;;;;;;;;;;4970912;28;20043;-82
2024/02/27 19:02:19;;;;;;;41.83;17.92;;;;;;;;;;4958868;28;20035;-82
2024/02/27 19:04:47;;;;;;;37.90;17.98;;;;;;;;;;4971553;28;20062;-82
2024/02/27 19:07:24;;;;;;;38.75;17.15;;;;;;;;;;4959502;28;20062;-81
2024/02/27 19:09:54;;;;;;;37.72;16.38;;;;;;;;;;4973203;28;20031;-82
2024/02/27 19:12:22;;;;;;;38.85;17.25;;;;;;;;;;4942070;28;20034;-81
2024/02/27 19:14:52;;;;;;;34.65;17.60;;;;;;;;;;4959970;28;20082;-81
2024/02/27 19:17:23;;;;;;;40.30;18.00;;;;;;;;;;4979480;28;20034;-83
2024/02/27 19:19:53;;;;;;;44.80;18.35;;;;;;;;;;4963651;28;20138;-81
2024/02/27 19:22:20;;;;;;;40.50;18.35;;;;;;;;;;4979185;28;20026;-81
2024/02/27 19:24:54;;;;;;;42.67;17.98;;;;;;;;;;4978461;28;20047;-82
2024/02/27 19:27:24;;;;;;;38.38;18.63;;;;;;;;;;4978935;28;20034;-81
2024/02/27 19:30:02;;;;;;;38.88;16.77;;;;;;;;;;4963060;28;20045;-82
2024/02/27 19:32:35;;;;;;;47.97;18.23;;;;;;;;;;4958555;28;20047;-82
2024/02/27 19:35:03;;;;;;;37.65;18.27;;;;;;;;;;4958146;28;20047;-81
2024/02/27 19:37:35;;;;;;;45.63;19.35;;;;;;;;;;4957922;28;20034;-82
2024/02/27 19:40:22;;;;;;;39.70;17.65;;;;;;;;;;4959102;28;20031;-82
2024/02/27 19:42:56;;;;;;;43.28;19.10;;;;;;;;;;4959140;28;20133;-82
2024/02/27 19:45:23;;;;;;;37.78;18.38;;;;;;;;;;4937940;28;20042;-81
2024/02/27 19:47:57;;;;;;;42.90;17.80;;;;;;;;;;4958813;28;20062;-81
2024/02/27 19:50:31;;;;;;;40.38;17.02;;;;;;;;;;4976049;28;20119;-83
2024/02/27 19:53:15;;;;;;;41.85;17.40;;;;;;;;;;4998854;28;20027;-82
2024/02/27 19:55:45;;;;;;;42.17;18.15;;;;;;;;;;4969123;28;20042;-79